createdAt,value
2017-08-05T00:00:13.659Z,24.35
2017-08-05T00:02:42.967Z,24.32
2017-08-05T00:05:12.468Z,24.27
2017-08-05T00:07:41.762Z,24.22
2017-08-05T00:10:11.242Z,24.15
2017-08-05T00:12:40.681Z,24.08
2017-08-05T00:15:10.203Z,23.99
2017-08-05T00:17:39.649Z,23.92
2017-08-05T00:20:09.156Z,23.83
2017-08-05T00:22:38.624Z,23.74
2017-08-05T00:25:08.140Z,23.68
2017-08-05T00:27:37.571Z,23.59
2017-08-05T00:30:07.061Z,23.53
2017-08-05T00:32:36.522Z,23.46
2017-08-05T00:35:06.037Z,23.42
2017-08-05T00:37:35.499Z,23.36
2017-08-05T00:40:05.005Z,23.36
2017-08-05T00:42:34.453Z,23.33
2017-08-05T00:45:03.971Z,23.31
2017-08-05T00:47:33.409Z,23.29
2017-08-05T00:50:02.928Z,23.26
2017-08-05T00:52:32.378Z,23.25
2017-08-05T00:55:01.959Z,23.24
2017-08-05T00:57:31.436Z,23.25
2017-08-05T01:00:00.912Z,23.26
2017-08-05T01:02:30.232Z,23.20
2017-08-05T01:04:59.697Z,23.22
2017-08-05T01:07:29.262Z,23.20
2017-08-05T01:09:58.718Z,23.19
2017-08-05T01:12:28.190Z,23.13
2017-08-05T01:14:57.660Z,23.03
2017-08-05T01:17:27.109Z,22.93
2017-08-05T01:19:56.570Z,23.08
2017-08-05T01:22:26.060Z,23.10
2017-08-05T01:24:55.514Z,23.09
2017-08-05T01:27:24.945Z,23.09
2017-08-05T01:29:54.396Z,23.09
2017-08-05T01:32:23.832Z,23.07
2017-08-05T01:34:53.285Z,23.04
2017-08-05T01:37:22.734Z,22.96
2017-08-05T01:39:52.180Z,22.86
2017-08-05T01:42:21.609Z,22.81
2017-08-05T01:44:51.117Z,22.77
2017-08-05T01:47:20.569Z,22.72
2017-08-05T01:49:49.692Z,22.67
2017-08-05T01:52:19.147Z,22.60
2017-08-05T01:54:48.589Z,22.54
2017-08-05T01:57:18.035Z,22.46
2017-08-05T01:59:48.424Z,22.41
2017-08-05T02:02:17.865Z,22.37
2017-08-05T02:04:47.321Z,22.34
2017-08-05T02:07:16.764Z,22.32
2017-08-05T02:09:46.221Z,22.33
2017-08-05T02:12:15.662Z,22.35
2017-08-05T02:14:45.105Z,22.37
2017-08-05T02:17:14.547Z,22.39
2017-08-05T02:19:43.990Z,22.40
2017-08-05T02:22:13.434Z,22.39
2017-08-05T02:24:42.900Z,22.40
2017-08-05T02:27:12.348Z,22.40
2017-08-05T02:29:41.797Z,22.41
2017-08-05T02:32:11.247Z,22.42
2017-08-05T02:34:40.686Z,22.42
2017-08-05T02:37:10.157Z,22.41
2017-08-05T02:39:45.611Z,22.38
2017-08-05T02:42:15.756Z,22.37
2017-08-05T02:44:45.036Z,22.37
2017-08-05T02:47:14.484Z,22.36
2017-08-05T02:49:43.935Z,22.37
2017-08-05T02:52:13.369Z,22.37
2017-08-05T02:54:42.822Z,22.37
2017-08-05T02:57:12.290Z,22.36
2017-08-05T02:59:41.725Z,22.35
2017-08-05T03:02:11.164Z,22.34
2017-08-05T03:04:40.620Z,22.33
2017-08-05T03:07:10.055Z,22.32
2017-08-05T03:09:39.496Z,22.33
2017-08-05T03:12:08.956Z,22.33
2017-08-05T03:14:38.413Z,22.35
2017-08-05T03:17:07.847Z,22.36
2017-08-05T03:19:37.302Z,22.39
2017-08-05T03:22:06.775Z,22.44
2017-08-05T03:24:36.251Z,22.50
2017-08-05T03:27:05.773Z,22.51
2017-08-05T03:29:35.205Z,22.56
2017-08-05T03:32:04.668Z,22.58
2017-08-05T03:34:34.125Z,22.60
2017-08-05T03:37:03.568Z,22.61
2017-08-05T03:39:33.013Z,22.63
2017-08-05T03:42:02.475Z,22.64
2017-08-05T03:44:31.953Z,22.61
2017-08-05T03:47:01.485Z,22.56
2017-08-05T03:49:30.926Z,22.56
2017-08-05T03:52:00.376Z,22.54
2017-08-05T03:54:29.827Z,22.54
2017-08-05T03:56:59.285Z,22.53
2017-08-05T03:59:28.714Z,22.54
2017-08-05T04:01:58.169Z,22.54
2017-08-05T04:04:27.612Z,22.54
2017-08-05T04:06:57.070Z,22.55
2017-08-05T04:09:26.507Z,22.56
2017-08-05T04:11:55.957Z,22.59
2017-08-05T04:14:25.421Z,22.63
2017-08-05T04:16:54.676Z,22.67
2017-08-05T04:19:24.184Z,22.72
2017-08-05T04:21:53.625Z,22.77
2017-08-05T04:24:23.068Z,22.83
2017-08-05T04:26:52.512Z,22.90
2017-08-05T04:29:21.964Z,22.98
2017-08-05T04:31:51.426Z,23.03
2017-08-05T04:34:20.880Z,23.09
2017-08-05T04:36:50.343Z,23.11
2017-08-05T04:39:19.768Z,23.11
2017-08-05T04:41:49.237Z,23.14
2017-08-05T04:44:18.684Z,23.16
2017-08-05T04:46:48.129Z,23.18
2017-08-05T04:49:17.593Z,23.15
2017-08-05T04:51:47.031Z,23.06
2017-08-05T04:54:16.473Z,23.16
2017-08-05T04:56:45.920Z,23.14
2017-08-05T04:59:15.373Z,23.04
2017-08-05T05:01:44.822Z,23.13
2017-08-05T05:04:14.282Z,23.25
2017-08-05T05:06:43.718Z,23.38
2017-08-05T05:09:13.166Z,23.51
2017-08-05T05:11:42.609Z,23.60
2017-08-05T05:14:12.044Z,23.65
2017-08-05T05:16:41.488Z,23.67
2017-08-05T05:19:10.943Z,23.74
2017-08-05T05:21:40.384Z,23.83
2017-08-05T05:24:09.839Z,23.91
2017-08-05T05:26:39.276Z,23.99
2017-08-05T05:29:08.729Z,24.10
2017-08-05T05:31:38.168Z,24.23
2017-08-05T05:34:07.662Z,24.41
2017-08-05T05:36:37.091Z,24.59
2017-08-05T05:39:06.616Z,24.65
2017-08-05T05:41:36.059Z,24.71
2017-08-05T05:44:05.513Z,24.81
2017-08-05T05:46:34.967Z,24.90
2017-08-05T05:49:04.416Z,24.99
2017-08-05T05:51:33.845Z,24.94
2017-08-05T05:54:03.292Z,24.97
2017-08-05T05:56:32.756Z,25.08
2017-08-05T05:59:02.200Z,25.19
2017-08-05T06:01:31.632Z,25.20
2017-08-05T06:04:01.072Z,25.17
2017-08-05T06:06:30.513Z,25.28
2017-08-05T06:08:59.947Z,25.36
2017-08-05T06:11:29.456Z,25.50
2017-08-05T06:13:58.932Z,25.60
2017-08-05T06:16:28.396Z,25.61
2017-08-05T06:18:57.877Z,25.75
2017-08-05T06:21:27.352Z,25.83
2017-08-05T06:23:56.787Z,25.94
2017-08-05T06:26:26.265Z,25.95
2017-08-05T06:28:55.701Z,26.05
2017-08-05T06:31:25.164Z,26.11
2017-08-05T06:33:54.619Z,26.22
2017-08-05T06:36:24.060Z,26.36
2017-08-05T06:38:53.510Z,26.48
2017-08-05T06:41:22.951Z,26.55
2017-08-05T06:43:52.392Z,26.70
2017-08-05T06:46:21.832Z,26.77
2017-08-05T06:48:51.283Z,26.80
2017-08-05T06:51:20.720Z,26.85
2017-08-05T06:53:50.169Z,26.90
2017-08-05T06:56:19.630Z,26.95
2017-08-05T06:58:49.073Z,26.94
2017-08-05T07:01:20.247Z,26.98
2017-08-05T07:03:49.802Z,26.93
2017-08-05T07:06:19.245Z,27.16
2017-08-05T07:08:48.713Z,27.26
2017-08-05T07:11:18.151Z,27.44
2017-08-05T07:13:47.608Z,27.57
2017-08-05T07:16:17.092Z,27.63
2017-08-05T07:18:46.552Z,27.70
2017-08-05T07:21:16.001Z,27.95
2017-08-05T07:23:45.503Z,27.87
2017-08-05T07:26:14.937Z,27.94
2017-08-05T07:28:44.371Z,27.88
2017-08-05T07:31:13.810Z,27.73
2017-08-05T07:33:43.252Z,27.46
2017-08-05T07:36:12.552Z,27.42
2017-08-05T07:38:41.986Z,27.37
2017-08-05T07:41:11.433Z,27.51
2017-08-05T07:43:40.886Z,27.40
2017-08-05T07:46:10.320Z,27.17
2017-08-05T07:48:39.756Z,27.23
2017-08-05T07:51:09.205Z,27.26
2017-08-05T07:53:38.661Z,27.34
2017-08-05T07:56:08.107Z,27.39
2017-08-05T07:58:37.653Z,27.56
2017-08-05T08:01:07.113Z,27.58
2017-08-05T08:03:36.575Z,27.31
2017-08-05T08:06:06.012Z,27.27
2017-08-05T08:08:35.469Z,27.27
2017-08-05T08:11:04.920Z,27.02
2017-08-05T08:13:34.369Z,27.29
2017-08-05T08:16:03.831Z,27.43
2017-08-05T08:18:33.270Z,27.70
2017-08-05T08:21:02.705Z,27.87
2017-08-05T08:23:32.150Z,28.20
2017-08-05T08:26:01.606Z,28.58
2017-08-05T08:28:31.027Z,28.86
2017-08-05T08:31:00.483Z,29.15
2017-08-05T08:33:29.976Z,29.31
2017-08-05T08:35:59.422Z,29.19
2017-08-05T08:38:28.865Z,29.58
2017-08-05T08:40:58.320Z,29.82
2017-08-05T08:43:27.753Z,29.89
2017-08-05T08:45:57.221Z,29.89
2017-08-05T08:48:26.701Z,29.75
2017-08-05T08:50:56.166Z,29.99
2017-08-05T08:53:25.639Z,30.18
2017-08-05T08:55:55.185Z,30.47
2017-08-05T08:58:24.655Z,30.80
2017-08-05T09:00:54.147Z,31.08
2017-08-05T09:03:23.669Z,31.60
2017-08-05T09:05:53.138Z,31.64
2017-08-05T09:08:22.576Z,31.63
2017-08-05T09:10:52.031Z,31.68
2017-08-05T09:13:21.480Z,31.53
2017-08-05T09:15:50.956Z,31.66
2017-08-05T09:18:20.401Z,31.55
2017-08-05T09:20:49.851Z,31.09
2017-08-05T09:23:19.297Z,31.22
2017-08-05T09:25:48.778Z,31.18
2017-08-05T09:28:18.283Z,31.18
2017-08-05T09:30:47.735Z,31.22
2017-08-05T09:33:17.190Z,31.18
2017-08-05T09:35:46.634Z,31.24
2017-08-05T09:38:16.076Z,31.36
2017-08-05T09:40:45.565Z,31.23
2017-08-05T09:43:15.009Z,30.90
2017-08-05T09:45:44.530Z,31.22
2017-08-05T09:48:14.068Z,30.80
2017-08-05T09:50:43.527Z,31.02
2017-08-05T09:53:12.989Z,31.25
2017-08-05T09:55:42.428Z,31.15
2017-08-05T09:58:11.888Z,30.69
2017-08-05T10:00:41.332Z,30.72
2017-08-05T10:03:10.769Z,30.71
2017-08-05T10:05:40.229Z,31.35
2017-08-05T10:08:09.701Z,31.80
2017-08-05T10:10:39.185Z,32.17
2017-08-05T10:13:08.632Z,32.09
2017-08-05T10:15:38.107Z,32.37
2017-08-05T10:18:07.548Z,32.28
2017-08-05T10:20:36.990Z,32.70
2017-08-05T10:23:06.447Z,32.92
2017-08-05T10:25:35.890Z,32.22
2017-08-05T10:28:05.326Z,31.92
2017-08-05T10:30:34.900Z,31.66
2017-08-05T10:33:04.339Z,31.70
2017-08-05T10:35:33.823Z,31.50
2017-08-05T10:38:03.252Z,31.53
2017-08-05T10:40:32.709Z,31.46
2017-08-05T10:43:02.153Z,31.71
2017-08-05T10:45:31.610Z,31.39
2017-08-05T10:48:01.044Z,31.54
2017-08-05T10:50:30.487Z,31.67
2017-08-05T10:52:59.966Z,31.63
2017-08-05T10:55:29.398Z,31.89
2017-08-05T10:57:58.967Z,32.10
2017-08-05T11:00:29.095Z,32.35
2017-08-05T11:02:58.369Z,32.72
2017-08-05T11:05:27.818Z,32.51
2017-08-05T11:07:57.422Z,32.61
2017-08-05T11:10:26.876Z,32.73
2017-08-05T11:12:56.345Z,32.83
2017-08-05T11:15:25.792Z,33.01
2017-08-05T11:17:55.285Z,32.89
2017-08-05T11:20:24.716Z,32.44
2017-08-05T11:22:54.271Z,32.80
2017-08-05T11:25:23.757Z,32.98
2017-08-05T11:27:53.233Z,33.23
2017-08-05T11:30:22.698Z,33.30
2017-08-05T11:35:30.720Z,33.37
2017-08-05T11:38:00.156Z,32.71
2017-08-05T11:40:29.635Z,32.93
2017-08-05T11:42:59.086Z,33.07
2017-08-05T11:45:28.535Z,33.05
2017-08-05T11:47:57.981Z,32.85
2017-08-05T11:50:27.434Z,33.08
2017-08-05T11:52:56.896Z,33.08
2017-08-05T11:55:26.321Z,32.59
2017-08-05T11:57:55.789Z,32.81
2017-08-05T12:00:25.306Z,32.72
2017-08-05T12:02:54.607Z,32.74
2017-08-05T12:05:24.083Z,32.47
2017-08-05T12:07:53.524Z,33.01
2017-08-05T12:10:23.012Z,32.97
2017-08-05T12:12:52.453Z,32.94
2017-08-05T12:15:21.951Z,33.00
2017-08-05T12:17:51.392Z,33.28
2017-08-05T12:20:20.878Z,32.72
2017-08-05T12:22:50.327Z,32.84
2017-08-05T12:25:19.828Z,33.52
2017-08-05T12:27:49.269Z,34.22
2017-08-05T12:30:18.738Z,34.92
2017-08-05T12:32:48.189Z,36.15
2017-08-05T12:35:17.702Z,36.71
2017-08-05T12:37:47.133Z,36.68
2017-08-05T12:40:16.607Z,36.29
2017-08-05T12:42:46.080Z,36.57
2017-08-05T12:45:15.548Z,37.49
2017-08-05T12:47:45.001Z,37.02
2017-08-05T12:50:14.481Z,38.07
2017-08-05T12:52:44.024Z,38.64
2017-08-05T12:55:13.473Z,39.62
2017-08-05T12:57:42.948Z,40.83
2017-08-05T13:00:12.424Z,40.06
2017-08-05T13:02:41.861Z,39.29
2017-08-05T13:05:11.427Z,40.99
2017-08-05T13:07:41.238Z,41.31
2017-08-05T13:10:10.813Z,42.24
2017-08-05T13:12:40.326Z,41.29
2017-08-05T13:15:10.225Z,42.50
2017-08-05T13:17:39.813Z,42.07
2017-08-05T13:20:09.291Z,42.89
2017-08-05T13:22:38.844Z,43.49
2017-08-05T13:25:08.443Z,42.22
2017-08-05T13:27:38.015Z,42.97
2017-08-05T13:30:07.950Z,41.20
2017-08-05T13:32:37.416Z,41.87
2017-08-05T13:35:07.484Z,42.63
2017-08-05T13:37:37.788Z,42.73
2017-08-05T13:40:07.694Z,43.62
2017-08-05T13:42:37.524Z,43.19
2017-08-05T13:45:07.185Z,43.63
2017-08-05T13:47:36.776Z,42.96
2017-08-05T13:50:06.400Z,44.50
2017-08-05T13:52:36.082Z,44.96
2017-08-05T13:55:05.622Z,44.38
2017-08-05T13:57:35.984Z,43.90
2017-08-05T14:00:05.481Z,44.06
2017-08-05T14:02:34.970Z,42.39
2017-08-05T14:05:04.725Z,41.55
2017-08-05T14:07:34.672Z,43.02
2017-08-05T14:10:04.410Z,42.52
2017-08-05T14:12:34.012Z,43.50
2017-08-05T14:15:03.587Z,42.71
2017-08-05T14:17:33.462Z,42.98
2017-08-05T14:20:03.485Z,42.42
2017-08-05T14:22:33.343Z,43.62
2017-08-05T14:25:03.433Z,44.13
2017-08-05T14:27:33.283Z,44.76
2017-08-05T14:30:03.006Z,44.11
2017-08-05T14:32:32.685Z,44.24
2017-08-05T14:35:02.269Z,42.93
2017-08-05T14:37:32.135Z,43.80
2017-08-05T14:40:01.935Z,44.37
2017-08-05T14:42:31.761Z,44.64
2017-08-05T14:45:01.661Z,43.35
2017-08-05T14:47:31.154Z,43.57
2017-08-05T14:50:00.980Z,41.44
2017-08-05T14:52:30.651Z,42.03
2017-08-05T14:55:00.383Z,42.40
2017-08-05T14:57:29.826Z,41.06
2017-08-05T14:59:59.407Z,40.29
2017-08-05T15:02:28.951Z,40.17
2017-08-05T15:04:58.516Z,40.17
2017-08-05T15:07:28.001Z,40.31
2017-08-05T15:09:57.571Z,40.20
2017-08-05T15:12:27.098Z,40.54
2017-08-05T15:14:56.556Z,38.70
2017-08-05T15:17:26.856Z,41.21
2017-08-05T15:19:56.792Z,40.80
2017-08-05T15:22:26.625Z,40.55
2017-08-05T15:24:56.749Z,40.06
2017-08-05T15:27:26.758Z,40.28
2017-08-05T15:29:56.954Z,39.70
2017-08-05T15:32:26.421Z,39.84
2017-08-05T15:34:56.879Z,39.57
2017-08-05T15:37:26.360Z,38.34
2017-08-05T15:39:56.090Z,39.87
2017-08-05T15:42:25.569Z,39.58
2017-08-05T15:44:55.030Z,39.41
2017-08-05T15:47:24.468Z,39.85
2017-08-05T15:49:53.903Z,40.32
2017-08-05T15:52:23.340Z,41.05
2017-08-05T15:54:52.798Z,40.97
2017-08-05T15:57:22.941Z,41.47
2017-08-05T15:59:52.399Z,40.44
2017-08-05T16:02:21.869Z,38.99
2017-08-05T16:04:51.310Z,40.17
2017-08-05T16:07:20.751Z,40.31
2017-08-05T16:09:50.193Z,40.98
2017-08-05T16:12:19.656Z,41.14
2017-08-05T16:14:49.182Z,41.33
2017-08-05T16:17:18.643Z,40.31
2017-08-05T16:19:48.101Z,40.15
2017-08-05T16:22:17.528Z,40.35
2017-08-05T16:24:46.975Z,39.55
2017-08-05T16:27:16.450Z,39.98
2017-08-05T16:29:45.899Z,39.57
2017-08-05T16:32:15.356Z,39.87
2017-08-05T16:34:44.812Z,39.39
2017-08-05T16:37:14.245Z,39.47
2017-08-05T16:39:43.747Z,39.42
2017-08-05T16:42:13.184Z,39.27
2017-08-05T16:44:42.665Z,39.08
2017-08-05T16:47:12.117Z,38.91
2017-08-05T16:49:41.577Z,38.27
2017-08-05T16:52:11.070Z,38.37
2017-08-05T16:54:40.497Z,38.08
2017-08-05T16:57:09.972Z,38.17
2017-08-05T16:59:39.446Z,37.54
2017-08-05T17:02:08.936Z,36.57
2017-08-05T17:04:38.404Z,35.84
2017-08-05T17:07:07.855Z,35.31
2017-08-05T17:09:37.324Z,34.61
2017-08-05T17:12:06.854Z,34.30
2017-08-05T17:14:36.329Z,33.95
2017-08-05T17:17:05.764Z,33.66
2017-08-05T17:19:35.225Z,33.32
2017-08-05T17:22:04.683Z,32.84
2017-08-05T17:24:34.152Z,32.60
2017-08-05T17:27:03.613Z,32.25
2017-08-05T17:29:33.108Z,31.89
2017-08-05T17:32:02.549Z,31.70
2017-08-05T17:34:32.008Z,31.51
2017-08-05T17:37:01.472Z,31.79
2017-08-05T17:39:30.962Z,31.84
2017-08-05T17:42:00.437Z,31.79
2017-08-05T17:44:29.912Z,31.77
2017-08-05T17:46:59.379Z,31.58
2017-08-05T17:49:28.847Z,31.42
2017-08-05T17:51:58.289Z,31.33
2017-08-05T17:54:27.735Z,31.28
2017-08-05T17:56:57.180Z,31.18
2017-08-05T17:59:26.631Z,30.99
2017-08-05T18:01:56.088Z,30.75
2017-08-05T18:04:25.570Z,30.60
2017-08-05T18:06:55.018Z,30.34
2017-08-05T18:09:24.469Z,30.16
2017-08-05T18:11:53.945Z,30.01
2017-08-05T18:14:23.424Z,29.89
2017-08-05T18:16:52.911Z,29.74
2017-08-05T18:19:22.380Z,29.65
2017-08-05T18:21:51.834Z,29.50
2017-08-05T18:24:21.326Z,29.33
2017-08-05T18:26:50.796Z,29.15
2017-08-05T18:29:20.216Z,29.02
2017-08-05T18:31:49.703Z,28.89
2017-08-05T18:34:19.151Z,28.78
2017-08-05T18:36:48.593Z,28.65
2017-08-05T18:39:18.037Z,28.53
2017-08-05T18:41:47.506Z,28.42
2017-08-05T18:44:16.938Z,28.33
2017-08-05T18:46:46.401Z,28.17
2017-08-05T18:49:15.962Z,28.03
2017-08-05T18:51:45.409Z,27.88
2017-08-05T18:54:14.853Z,27.73
2017-08-05T18:56:44.296Z,27.63
2017-08-05T18:59:13.766Z,27.59
2017-08-05T19:01:43.401Z,27.55
2017-08-05T19:04:13.648Z,27.50
2017-08-05T19:06:43.110Z,27.48
2017-08-05T19:09:12.571Z,27.43
2017-08-05T19:11:42.010Z,27.39
2017-08-05T19:14:11.448Z,27.34
2017-08-05T19:16:40.945Z,27.21
2017-08-05T19:19:10.401Z,27.12
2017-08-05T19:21:39.861Z,27.04
2017-08-05T19:24:09.295Z,26.98
2017-08-05T19:26:38.732Z,26.92
2017-08-05T19:29:08.177Z,26.88
2017-08-05T19:31:37.621Z,26.84
2017-08-05T19:34:07.089Z,26.77
2017-08-05T19:36:36.555Z,26.72
2017-08-05T19:39:05.675Z,26.64
2017-08-05T19:41:35.168Z,26.60
2017-08-05T19:44:04.632Z,26.54
2017-08-05T19:46:34.073Z,26.45
2017-08-05T19:49:03.525Z,26.37
2017-08-05T19:51:33.099Z,26.30
2017-08-05T19:54:02.549Z,26.26
2017-08-05T19:56:32.001Z,26.23
2017-08-05T19:59:01.445Z,26.20
2017-08-05T20:01:30.901Z,26.17
2017-08-05T20:04:00.372Z,26.13
2017-08-05T20:06:29.817Z,26.11
2017-08-05T20:08:59.264Z,26.01
2017-08-05T20:11:28.757Z,25.97
2017-08-05T20:13:58.206Z,25.94
2017-08-05T20:16:27.657Z,25.90
2017-08-05T20:18:57.110Z,25.86
2017-08-05T20:21:26.527Z,25.83
2017-08-05T20:23:55.976Z,25.77
2017-08-05T20:26:25.459Z,25.74
2017-08-05T20:28:54.917Z,25.72
2017-08-05T20:31:24.403Z,25.71
2017-08-05T20:33:53.869Z,25.69
2017-08-05T20:36:23.315Z,25.66
2017-08-05T20:38:52.756Z,25.62
2017-08-05T20:41:22.207Z,25.58
2017-08-05T20:43:51.746Z,25.56
2017-08-05T20:46:21.177Z,25.52
2017-08-05T20:48:50.640Z,25.50
2017-08-05T20:51:20.085Z,25.44
2017-08-05T20:53:49.560Z,25.39
2017-08-05T20:56:18.997Z,25.37
2017-08-05T20:58:48.456Z,25.33
2017-08-05T21:01:17.905Z,25.29
2017-08-05T21:03:47.360Z,25.28
2017-08-05T21:06:16.812Z,25.26
2017-08-05T21:08:46.274Z,25.23
2017-08-05T21:11:15.761Z,25.20
2017-08-05T21:13:45.197Z,25.18
2017-08-05T21:16:14.657Z,25.14
2017-08-05T21:18:44.114Z,25.16
2017-08-05T21:21:13.597Z,25.21
2017-08-05T21:23:43.041Z,25.18
2017-08-05T21:26:12.510Z,25.14
2017-08-05T21:28:41.954Z,25.08
2017-08-05T21:31:11.406Z,25.03
2017-08-05T21:33:40.877Z,25.01
2017-08-05T21:36:10.305Z,24.98
2017-08-05T21:38:39.786Z,24.97
2017-08-05T21:41:09.234Z,24.94
2017-08-05T21:43:38.697Z,24.87
2017-08-05T21:46:08.177Z,24.81
2017-08-05T21:48:37.631Z,24.75
2017-08-05T21:51:07.070Z,24.71
2017-08-05T21:53:36.515Z,24.68
2017-08-05T21:56:05.977Z,24.65
2017-08-05T21:58:35.436Z,24.62
2017-08-05T22:01:04.878Z,24.58
2017-08-05T22:03:34.167Z,24.52
2017-08-05T22:06:03.609Z,24.50
2017-08-05T22:08:32.855Z,24.49
2017-08-05T22:11:02.311Z,24.47
2017-08-05T22:13:31.744Z,24.46
2017-08-05T22:16:01.206Z,24.45
2017-08-05T22:18:30.669Z,24.44
2017-08-05T22:21:00.127Z,24.43
2017-08-05T22:23:29.567Z,24.41
2017-08-05T22:25:59.019Z,24.39
2017-08-05T22:28:28.474Z,24.33
2017-08-05T22:30:57.927Z,24.32
2017-08-05T22:33:27.386Z,24.30
2017-08-05T22:35:57.020Z,24.27
2017-08-05T22:38:26.474Z,24.25
2017-08-05T22:40:55.901Z,24.23
2017-08-05T22:43:25.389Z,24.21
2017-08-05T22:45:54.836Z,24.17
2017-08-05T22:48:24.282Z,24.15
2017-08-05T22:50:53.720Z,24.13
2017-08-05T22:53:23.199Z,24.12
2017-08-05T22:55:52.698Z,24.14
2017-08-05T22:58:22.158Z,24.14
2017-08-05T23:00:51.621Z,24.19
2017-08-05T23:03:21.062Z,24.24
2017-08-05T23:05:50.506Z,24.25
2017-08-05T23:08:19.957Z,24.31
2017-08-05T23:10:49.410Z,24.34
2017-08-05T23:13:18.853Z,24.27
2017-08-05T23:15:48.144Z,24.25
2017-08-05T23:18:17.679Z,24.19
2017-08-05T23:20:47.158Z,24.08
2017-08-05T23:23:16.593Z,24.05
2017-08-05T23:25:46.041Z,23.97
2017-08-05T23:28:15.289Z,23.80
2017-08-05T23:30:45.049Z,23.22
2017-08-05T23:33:14.516Z,22.58
2017-08-05T23:35:44.003Z,22.39
2017-08-05T23:38:13.422Z,22.25
2017-08-05T23:40:42.872Z,22.00
2017-08-05T23:43:12.394Z,21.89
2017-08-05T23:45:41.876Z,21.74
2017-08-05T23:48:11.315Z,21.60
2017-08-05T23:50:40.762Z,21.53
2017-08-05T23:53:10.209Z,21.42
2017-08-05T23:55:39.813Z,21.38
2017-08-05T23:58:09.286Z,21.36
